createdAt,value
2023-05-09T00:00:17.260Z,81.69
2023-05-09T00:05:23.644Z,84.63
2023-05-09T00:10:29.690Z,87.25
2023-05-09T00:15:34.202Z,87.81
2023-05-09T00:20:41.109Z,87.79
2023-05-09T00:25:45.453Z,88.11
2023-05-09T00:30:50.726Z,88.91
2023-05-09T00:35:58.407Z,89.30
2023-05-09T00:41:02.800Z,89.74
2023-05-09T00:46:07.135Z,89.33
2023-05-09T00:51:13.095Z,90.60
2023-05-09T00:56:17.254Z,89.85
2023-05-09T01:01:21.833Z,90.07
2023-05-09T01:06:38.648Z,90.18
2023-05-09T01:11:50.235Z,90.63
2023-05-09T01:17:02.438Z,89.60
2023-05-09T01:22:10.560Z,89.12
2023-05-09T01:27:44.715Z,88.38
2023-05-09T01:32:53.808Z,88.68
2023-05-09T01:38:00.051Z,89.55
2023-05-09T01:43:08.946Z,89.27
2023-05-09T01:48:16.406Z,88.91
2023-05-09T01:53:23.278Z,88.51
2023-05-09T01:58:28.873Z,88.80
2023-05-09T02:03:38.585Z,89.36
2023-05-09T02:08:45.212Z,89.44
2023-05-09T02:13:50.965Z,88.78
2023-05-09T02:18:56.562Z,88.99
2023-05-09T02:24:03.367Z,88.03
2023-05-09T02:29:09.436Z,89.12
2023-05-09T02:34:16.191Z,88.49
2023-05-09T02:39:21.154Z,86.77
2023-05-09T02:44:26.058Z,86.51
2023-05-09T02:49:32.765Z,86.70
2023-05-09T02:54:39.425Z,86.26
2023-05-09T02:59:43.500Z,85.32
2023-05-09T03:04:48.887Z,86.40
2023-05-09T03:09:54.435Z,86.43
2023-05-09T03:15:00.661Z,86.70
2023-05-09T03:20:10.456Z,87.47
2023-05-09T03:25:15.994Z,87.20
2023-05-09T03:30:21.820Z,88.20
2023-05-09T03:35:29.159Z,88.36
2023-05-09T03:40:33.837Z,88.05
2023-05-09T03:45:45.103Z,88.47
2023-05-09T03:50:53.373Z,86.83
2023-05-09T03:55:59.040Z,87.11
2023-05-09T04:01:05.409Z,87.56
2023-05-09T04:06:11.573Z,88.29
2023-05-09T04:11:20.224Z,87.01
2023-05-09T04:16:26.589Z,85.99
2023-05-09T04:21:33.614Z,85.65
2023-05-09T04:26:40.121Z,86.24
2023-05-09T04:31:48.298Z,86.69
2023-05-09T04:36:54.953Z,86.36
2023-05-09T04:41:59.373Z,86.45
2023-05-09T04:47:03.880Z,85.64
2023-05-09T04:52:09.988Z,83.58
2023-05-09T04:57:18.585Z,82.95
2023-05-09T05:02:28.538Z,82.72
2023-05-09T05:07:34.325Z,83.91
2023-05-09T05:12:38.952Z,83.05
2023-05-09T05:17:48.570Z,82.28
2023-05-09T05:22:58.453Z,81.13
2023-05-09T05:28:02.732Z,78.82
2023-05-09T05:33:07.250Z,80.41
2023-05-09T05:38:14.054Z,80.34
2023-05-09T05:43:19.643Z,80.38
2023-05-09T05:48:24.098Z,80.75
2023-05-09T05:53:32.775Z,80.22
2023-05-09T05:58:37.658Z,79.99
2023-05-09T06:03:44.235Z,80.79
2023-05-09T06:08:51.093Z,81.30
2023-05-09T06:13:55.286Z,81.60
2023-05-09T06:18:59.523Z,81.15
2023-05-09T06:24:10.167Z,81.64
2023-05-09T06:29:18.723Z,81.91
2023-05-09T06:34:23.553Z,80.88
2023-05-09T06:39:32.664Z,80.19
2023-05-09T06:44:37.133Z,80.66
2023-05-09T06:49:41.377Z,80.12
2023-05-09T06:54:47.168Z,79.04
2023-05-09T06:59:51.902Z,76.88
2023-05-09T07:04:56.407Z,75.73
2023-05-09T07:10:11.496Z,75.43
2023-05-09T07:15:22.935Z,76.58
2023-05-09T07:20:36.107Z,77.45
2023-05-09T07:25:41.989Z,77.04
2023-05-09T07:30:46.987Z,77.70
2023-05-09T07:35:53.159Z,79.91
2023-05-09T07:40:58.860Z,77.85
2023-05-09T07:46:03.290Z,78.22
2023-05-09T07:51:08.107Z,79.13
2023-05-09T07:56:13.769Z,78.57
2023-05-09T08:01:18.267Z,78.60
2023-05-09T08:06:22.714Z,79.25
2023-05-09T08:11:28.413Z,80.03
2023-05-09T08:16:34.466Z,80.73
2023-05-09T08:21:38.570Z,82.32
2023-05-09T08:26:44.586Z,81.78
2023-05-09T08:31:49.062Z,80.02
2023-05-09T08:36:55.826Z,79.88
2023-05-09T08:42:04.636Z,79.94
2023-05-09T08:47:09.295Z,79.25
2023-05-09T08:52:13.432Z,79.73
2023-05-09T08:57:19.766Z,79.42
2023-05-09T09:02:24.997Z,78.36
2023-05-09T09:07:31.777Z,78.24
2023-05-09T09:12:39.127Z,78.38
2023-05-09T09:17:45.065Z,78.00
2023-05-09T09:22:52.983Z,77.13
2023-05-09T09:27:58.984Z,78.80
2023-05-09T09:33:04.012Z,79.23
2023-05-09T09:38:08.867Z,80.31
2023-05-09T09:43:16.028Z,80.21
2023-05-09T09:53:52.815Z,81.32
2023-05-09T09:59:12.563Z,81.80
2023-05-09T10:04:17.454Z,80.45
2023-05-09T10:09:24.454Z,80.05
2023-05-09T10:14:35.005Z,81.21
2023-05-09T10:19:43.692Z,80.29
2023-05-09T10:24:52.538Z,82.08
2023-05-09T10:30:04.831Z,83.02
2023-05-09T10:35:14.087Z,83.56
2023-05-09T10:40:20.741Z,85.12
2023-05-09T10:45:27.046Z,83.65
2023-05-09T10:50:33.712Z,85.49
2023-05-09T10:55:39.856Z,84.74
2023-05-09T11:00:50.220Z,85.61
2023-05-09T11:05:56.776Z,85.43
2023-05-09T11:11:08.479Z,85.62
2023-05-09T11:16:14.274Z,85.28
2023-05-09T11:26:49.667Z,84.67
2023-05-09T11:32:14.788Z,84.97
2023-05-09T11:37:21.054Z,85.66
2023-05-09T11:42:28.031Z,85.80
2023-05-09T11:47:33.831Z,85.72
2023-05-09T11:52:38.926Z,85.27
2023-05-09T11:57:44.474Z,84.16
2023-05-09T12:02:51.701Z,85.51
2023-05-09T12:07:55.901Z,86.17
2023-05-09T12:13:01.302Z,86.59
2023-05-09T12:18:08.921Z,88.26
2023-05-09T12:23:14.655Z,88.99
2023-05-09T12:28:19.664Z,91.15
2023-05-09T12:33:25.546Z,91.91
2023-05-09T12:38:30.747Z,91.66
2023-05-09T12:43:39.492Z,91.96
2023-05-09T12:48:48.769Z,92.06
2023-05-09T12:53:53.330Z,92.33
2023-05-09T12:58:57.825Z,93.20
2023-05-09T13:04:04.843Z,92.69
2023-05-09T13:09:09.747Z,90.77
2023-05-09T13:14:14.010Z,88.25
2023-05-09T13:19:19.855Z,89.03
2023-05-09T13:24:24.270Z,90.44
2023-05-09T13:29:28.436Z,90.98
2023-05-09T13:34:34.526Z,89.00
2023-05-09T13:39:38.984Z,88.86
2023-05-09T13:44:43.256Z,88.67
2023-05-09T13:49:48.801Z,89.22
2023-05-09T13:54:53.715Z,88.22
2023-05-09T14:00:07.050Z,88.02
2023-05-09T14:05:22.386Z,87.46
2023-05-09T14:10:27.540Z,88.04
2023-05-09T14:15:31.797Z,86.71
2023-05-09T14:20:38.134Z,85.41
2023-05-09T14:25:42.496Z,86.64
2023-05-09T14:30:47.653Z,86.66
2023-05-09T14:35:53.535Z,86.68
2023-05-09T14:41:02.653Z,85.46
2023-05-09T14:46:07.441Z,84.43
2023-05-09T14:51:13.080Z,83.85
2023-05-09T14:56:17.603Z,83.48
2023-05-09T15:01:21.649Z,83.84
2023-05-09T15:06:27.683Z,83.84
2023-05-09T15:11:43.732Z,83.11
2023-05-09T15:16:53.747Z,83.63
2023-05-09T15:21:59.671Z,83.82
2023-05-09T15:27:04.881Z,83.31
2023-05-09T15:32:09.417Z,83.38
2023-05-09T15:37:15.060Z,83.74
2023-05-09T15:42:19.428Z,84.84
2023-05-09T15:47:23.455Z,84.51
2023-05-09T15:52:32.324Z,83.54
2023-05-09T15:57:39.609Z,86.04
2023-05-09T16:02:44.544Z,85.10
2023-05-09T16:07:53.331Z,85.55
2023-05-09T16:12:58.483Z,86.15
2023-05-09T16:18:03.026Z,86.63
2023-05-09T16:23:08.901Z,89.05
2023-05-09T16:28:15.525Z,88.75
2023-05-09T16:33:23.951Z,88.14
2023-05-09T16:38:30.439Z,86.54
2023-05-09T16:43:38.020Z,86.99
2023-05-09T16:48:42.668Z,87.93
2023-05-09T16:53:48.675Z,87.52
2023-05-09T16:58:54.038Z,87.23
2023-05-09T17:04:04.687Z,87.14
2023-05-09T17:09:10.589Z,87.39
2023-05-09T17:14:14.810Z,89.46
2023-05-09T17:19:21.227Z,90.72
2023-05-09T17:24:27.497Z,88.39
2023-05-09T17:29:32.515Z,88.43
2023-05-09T17:34:38.028Z,88.78
2023-05-09T17:39:45.746Z,87.40
2023-05-09T17:44:51.296Z,89.46
2023-05-09T17:49:55.518Z,89.75
2023-05-09T17:55:02.424Z,89.05
2023-05-09T18:00:09.609Z,91.16
2023-05-09T18:05:25.063Z,89.99
2023-05-09T18:10:32.571Z,89.87
2023-05-09T18:15:38.590Z,90.84
2023-05-09T18:20:43.614Z,89.69
2023-05-09T18:25:50.086Z,91.35
2023-05-09T18:30:55.114Z,92.75
2023-05-09T18:36:00.462Z,92.25
2023-05-09T18:41:10.645Z,89.54
2023-05-09T18:46:17.622Z,89.83
2023-05-09T18:51:23.205Z,87.55
2023-05-09T18:56:28.904Z,86.44
2023-05-09T19:01:34.190Z,86.47
2023-05-09T19:06:38.512Z,85.38
2023-05-09T19:11:45.726Z,85.98
2023-05-09T19:16:52.108Z,84.83
2023-05-09T19:21:58.698Z,84.93
2023-05-09T19:27:07.248Z,85.44
2023-05-09T19:32:11.587Z,83.53
2023-05-09T19:37:15.728Z,85.24
2023-05-09T19:42:21.893Z,85.35
2023-05-09T19:47:26.354Z,85.02
2023-05-09T19:52:31.855Z,84.04
2023-05-09T19:57:38.657Z,84.09
2023-05-09T20:02:43.160Z,84.76
2023-05-09T20:07:47.306Z,83.66
2023-05-09T20:12:54.353Z,85.46
2023-05-09T20:17:58.755Z,84.73
2023-05-09T20:23:05.116Z,85.18
2023-05-09T20:28:11.913Z,84.45
2023-05-09T20:33:16.828Z,84.42
2023-05-09T20:38:21.236Z,86.67
2023-05-09T20:43:30.239Z,86.92
2023-05-09T20:48:34.698Z,87.39
2023-05-09T20:53:39.052Z,87.43
2023-05-09T20:58:44.756Z,87.43
2023-05-09T21:03:52.588Z,87.94
2023-05-09T21:08:57.509Z,87.19
2023-05-09T21:14:04.917Z,87.80
2023-05-09T21:19:11.535Z,88.40
2023-05-09T21:24:15.628Z,88.22
2023-05-09T21:29:22.689Z,85.85
2023-05-09T21:34:26.964Z,84.87
2023-05-09T21:39:33.606Z,85.15
2023-05-09T21:44:39.624Z,85.01
2023-05-09T21:49:44.377Z,85.53
2023-05-09T21:54:48.916Z,83.80
2023-05-09T21:59:56.758Z,84.45
2023-05-09T22:05:02.449Z,84.19
2023-05-09T22:10:10.246Z,84.06
2023-05-09T22:15:17.282Z,84.89
2023-05-09T22:20:22.725Z,84.26
2023-05-09T22:25:26.842Z,84.69
2023-05-09T22:30:34.499Z,84.48
2023-05-09T22:35:38.661Z,84.42
2023-05-09T22:40:42.813Z,83.18
2023-05-09T22:45:48.503Z,82.90
2023-05-09T22:50:52.799Z,81.41
2023-05-09T22:55:56.984Z,81.26
2023-05-09T23:01:02.460Z,80.98
2023-05-09T23:06:07.111Z,82.05
2023-05-09T23:11:12.503Z,82.22
2023-05-09T23:16:18.121Z,81.79
2023-05-09T23:21:22.573Z,81.84
2023-05-09T23:26:27.718Z,82.25
2023-05-09T23:31:33.431Z,82.39
2023-05-09T23:36:38.764Z,83.58
2023-05-09T23:41:43.765Z,82.38
2023-05-09T23:46:49.329Z,81.31
2023-05-09T23:51:53.359Z,79.62
2023-05-09T23:56:57.886Z,82.67
